Time;durP1;ratioP1;P1;durP2;ratioP2;P2;SDS_P1;SDS_P2;PMS_P1;PMS_P2;Temp;Humidity;BMP_temperature;BMP_pressure;BME280_temperature;BME280_humidity;BME280_pressure;Samples;Min_cycle;Max_cycle;Signal;HPM_P1;HPM_P2
2022/10/05 00:05:00;;;;;;;1.05;0.40;;;;;;;13.76;100.00;101787.56;10554359;28;20406;-76
2022/10/05 00:10:12;;;;;;;0.60;0.45;;;;;;;13.77;100.00;101789.31;10582590;28;20088;-77
2022/10/05 00:15:17;;;;;;;0.57;0.32;;;;;;;13.74;100.00;101784.03;10564324;28;20100;-77
2022/10/05 00:20:24;;;;;;;0.95;0.70;;;;;;;13.79;100.00;101777.28;10564553;28;20109;-76
2022/10/05 00:25:26;;;;;;;1.45;0.93;;;;;;;13.77;100.00;101773.78;10582554;28;20142;-76
2022/10/05 00:37:31;;;;;;;0.63;0.60;;;;;;;13.80;100.00;101755.75;10582969;28;20436;-75
2022/10/05 00:42:56;;;;;;;0.52;0.50;;;;;;;13.77;100.00;101753.94;10564457;28;20122;-75
2022/10/05 00:48:31;;;;;;;0.93;0.70;;;;;;;13.85;100.00;101780.03;10563633;28;20046;-76
2022/10/05 00:53:45;;;;;;;9.70;0.80;;;;;;;13.87;100.00;101769.72;10563154;28;20047;-76
2022/10/05 00:59:11;;;;;;;1.58;1.10;;;;;;;13.87;100.00;101772.28;10546284;28;20064;-76
2022/10/05 01:04:12;;;;;;;1.30;0.50;;;;;;;13.82;100.00;101760.94;10578208;28;20071;-76
2022/10/05 01:09:32;;;;;;;1.63;1.05;;;;;;;13.80;100.00;101764.38;10583048;28;20064;-76
2022/10/05 01:14:58;;;;;;;0.43;0.43;;;;;;;13.79;100.00;101767.78;10589599;28;20051;-77
2022/10/05 01:20:19;;;;;;;0.65;0.45;;;;;;;13.78;100.00;101765.16;10570926;28;20048;-77
2022/10/05 01:25:50;;;;;;;0.82;0.57;;;;;;;13.78;100.00;101765.16;10592577;27;20039;-77
2022/10/05 01:31:17;;;;;;;1.65;0.80;;;;;;;13.71;100.00;101758.94;10570136;28;20443;-76
2022/10/05 01:36:30;;;;;;;1.23;0.85;;;;;;;13.63;100.00;101761.34;10570466;28;20052;-76
2022/10/05 01:41:49;;;;;;;3.50;1.63;;;;;;;13.61;100.00;101770.75;10571122;28;20094;-76
2022/10/05 01:47:15;;;;;;;0.88;0.73;;;;;;;13.61;100.00;101760.41;10612520;28;20036;-76
2022/10/05 01:52:31;;;;;;;0.35;0.35;;;;;;;13.50;100.00;101759.25;10576810;28;20120;-76
2022/10/05 01:58:14;;;;;;;0.32;0.22;;;;;;;13.47;100.00;101762.66;10554276;28;20048;-76
2022/10/05 02:03:43;;;;;;;1.20;0.75;;;;;;;13.46;100.00;101752.22;10556145;28;20113;-76
2022/10/05 02:08:51;;;;;;;1.45;0.68;;;;;;;13.41;100.00;101753.81;10569723;28;20035;-77
2022/10/05 02:14:08;;;;;;;3.10;2.13;;;;;;;13.33;100.00;101740.59;10577319;28;20077;-77
2022/10/05 02:26:04;;;;;;;0.60;0.27;;;;;;;13.44;100.00;101738.38;10587006;28;20040;-76
2022/10/05 02:31:16;;;;;;;0.60;0.60;;;;;;;13.38;100.00;101738.16;10568384;28;20050;-76
2022/10/05 02:36:32;;;;;;;1.13;0.85;;;;;;;13.31;100.00;101730.22;10568580;28;20134;-76
2022/10/05 02:41:59;;;;;;;0.60;0.60;;;;;;;13.20;100.00;101723.88;10568397;28;20036;-75
2022/10/05 02:47:16;;;;;;;2.45;1.05;;;;;;;13.19;100.00;101711.78;10541522;28;20048;-75
2022/10/05 02:52:37;;;;;;;0.55;0.35;;;;;;;13.14;100.00;101714.22;10567690;28;20043;-76
2022/10/05 02:57:51;;;;;;;6.95;2.83;;;;;;;13.08;100.00;101698.53;10567779;28;20047;-76
2022/10/05 03:03:24;;;;;;;0.35;0.35;;;;;;;13.10;100.00;101696.88;10585363;28;20046;-77
2022/10/05 03:09:02;;;;;;;0.63;0.43;;;;;;;13.02;100.00;101688.88;10528440;28;20043;-76
2022/10/05 03:14:24;;;;;;;2.38;0.88;;;;;;;13.04;100.00;101686.34;10568834;28;20086;-76
2022/10/05 03:20:09;;;;;;;3.03;1.10;;;;;;;13.04;100.00;101690.66;10566417;28;20036;-77
2022/10/05 03:25:33;;;;;;;2.30;0.82;;;;;;;13.13;100.00;101683.16;10558160;28;20044;-76
2022/10/05 03:30:48;;;;;;;1.75;0.88;;;;;;;13.14;100.00;101692.66;10537366;28;20066;-77
2022/10/05 03:36:06;;;;;;;1.00;0.82;;;;;;;13.13;100.00;101675.41;10564956;28;20051;-76
2022/10/05 03:41:21;;;;;;;4.40;1.05;;;;;;;13.11;100.00;101687.41;10578554;28;20046;-76
2022/10/05 03:46:46;;;;;;;0.68;0.65;;;;;;;13.12;100.00;101695.19;10565010;28;20040;-76
2022/10/05 03:51:58;;;;;;;2.45;0.95;;;;;;;13.11;100.00;101703.78;10571928;28;20048;-76
2022/10/05 03:57:10;;;;;;;1.30;0.55;;;;;;;13.27;100.00;101673.16;10580981;28;20506;-76
2022/10/05 04:02:31;;;;;;;1.38;0.77;;;;;;;13.33;100.00;101678.50;10564883;28;20049;-77
2022/10/05 04:07:39;;;;;;;1.13;0.65;;;;;;;13.41;100.00;101673.56;10564282;28;20043;-78
2022/10/05 04:12:46;;;;;;;1.55;0.50;;;;;;;13.40;100.00;101661.47;10564512;28;20094;-78
2022/10/05 04:17:56;;;;;;;1.42;1.13;;;;;;;13.33;100.00;101669.03;10577456;28;20127;-77
2022/10/05 04:23:09;;;;;;;0.77;0.63;;;;;;;13.31;100.00;101681.06;10564011;28;20055;-78
2022/10/05 04:28:16;;;;;;;0.85;0.57;;;;;;;13.31;100.00;101675.88;10547063;28;20036;-77
2022/10/05 04:33:20;;;;;;;0.43;0.40;;;;;;;13.34;100.00;101675.06;10563775;28;20051;-76
2022/10/05 04:38:59;;;;;;;0.52;0.47;;;;;;;13.29;100.00;101674.09;10563170;28;20067;-76
2022/10/05 04:44:20;;;;;;;1.02;0.47;;;;;;;13.28;100.00;101664.56;10540615;28;20127;-77
2022/10/05 04:49:40;;;;;;;1.65;0.88;;;;;;;13.29;100.00;101658.56;10530461;28;20036;-76
2022/10/05 04:55:03;;;;;;;0.40;0.40;;;;;;;13.30;100.00;101663.78;10563176;28;20052;-77
2022/10/05 05:00:31;;;;;;;1.98;0.95;;;;;;;13.26;100.00;101658.47;10545956;28;20052;-77
2022/10/05 05:06:00;;;;;;;1.30;0.68;;;;;;;13.32;100.00;101656.94;10581024;28;20067;-77
2022/10/05 05:11:53;;;;;;;1.35;1.10;;;;;;;13.30;100.00;101643.06;10549328;28;20051;-76
2022/10/05 05:17:05;;;;;;;1.30;0.75;;;;;;;13.30;100.00;101648.25;10540230;28;20055;-77
2022/10/05 05:22:26;;;;;;;0.95;0.57;;;;;;;13.31;100.00;101644.81;10533482;28;20451;-76
2022/10/05 05:27:41;;;;;;;0.88;0.43;;;;;;;13.25;100.00;101654.16;10563594;28;20036;-76
2022/10/05 05:33:09;;;;;;;0.80;0.70;;;;;;;13.25;100.00;101655.03;10563354;28;20052;-76
2022/10/05 05:38:16;;;;;;;0.45;0.32;;;;;;;13.22;100.00;101659.22;10545971;28;20047;-76
2022/10/05 05:43:25;;;;;;;1.63;1.15;;;;;;;13.21;100.00;101668.72;10562403;28;20054;-76
2022/10/05 05:48:45;;;;;;;0.20;0.20;;;;;;;13.21;100.00;101658.38;10561941;28;20039;-76
2022/10/05 05:54:11;;;;;;;1.87;0.93;;;;;;;13.20;100.00;101659.19;10561631;28;20048;-77
2022/10/05 05:59:26;;;;;;;1.40;0.82;;;;;;;13.30;100.00;101662.91;10545341;28;20287;-76
2022/10/05 06:04:40;;;;;;;0.73;0.50;;;;;;;13.31;100.00;101647.41;10566507;28;20586;-78
2022/10/05 06:09:49;;;;;;;3.28;0.98;;;;;;;13.32;100.00;101649.16;10568770;28;20483;-77
2022/10/05 06:15:12;;;;;;;0.73;0.73;;;;;;;13.33;100.00;101640.56;10569322;28;20051;-76
2022/10/05 06:20:53;;;;;;;1.10;0.80;;;;;;;13.40;100.00;101645.94;10569147;28;20050;-76
2022/10/05 06:26:14;;;;;;;0.80;0.43;;;;;;;13.40;100.00;101633.00;10413243;28;20055;-78
2022/10/05 06:31:46;;;;;;;1.40;0.88;;;;;;;13.44;100.00;101634.84;10568649;28;20040;-77
2022/10/05 06:37:01;;;;;;;0.35;0.35;;;;;;;13.52;100.00;101628.13;10534728;28;20043;-77
2022/10/05 06:42:44;;;;;;;0.32;0.10;;;;;;;13.54;100.00;101629.03;10584194;28;20039;-77
2022/10/05 06:48:39;;;;;;;0.57;0.30;;;;;;;13.56;100.00;101622.19;10557127;28;20040;-76
2022/10/05 06:54:21;;;;;;;1.40;0.85;;;;;;;13.58;100.00;101632.59;10547282;28;20064;-77
2022/10/05 06:59:36;;;;;;;0.75;0.55;;;;;;;13.55;100.00;101648.94;10584114;27;20044;-77
2022/10/05 07:04:57;;;;;;;0.17;0.17;;;;;;;13.54;100.00;101649.75;10565858;28;20051;-77
2022/10/05 07:10:14;;;;;;;0.08;0.08;;;;;;;13.57;100.00;101631.72;10597211;27;20043;-77
2022/10/05 07:15:28;;;;;;;0.47;0.30;;;;;;;13.58;100.00;101642.94;10565992;28;20414;-77
2022/10/05 07:21:00;;;;;;;0.73;0.47;;;;;;;13.69;100.00;101638.03;10565944;28;20501;-76
2022/10/05 07:26:38;;;;;;;1.23;0.60;;;;;;;13.77;100.00;101618.38;10551105;28;20043;-77
2022/10/05 07:31:55;;;;;;;0.90;0.75;;;;;;;13.82;100.00;101621.94;10573970;28;20036;-77
2022/10/05 07:42:46;;;;;;;1.95;0.77;;;;;;;14.02;100.00;101606.03;10577971;28;20177;-77
2022/10/05 07:47:57;;;;;;;1.55;0.75;;;;;;;14.09;100.00;101602.72;10565038;28;20050;-76
2022/10/05 08:00:19;;;;;;;0.68;0.47;;;;;;;14.39;100.00;101593.88;10579580;28;20035;-76
2022/10/05 08:05:28;;;;;;;0.25;0.25;;;;;;;14.38;100.00;101594.72;10565035;28;20055;-77
2022/10/05 08:10:54;;;;;;;0.35;0.35;;;;;;;14.43;100.00;101585.31;10564466;28;20071;-77
2022/10/05 08:16:02;;;;;;;0.85;0.57;;;;;;;14.42;100.00;101588.72;10553608;28;20078;-78
2022/10/05 08:21:10;;;;;;;0.05;0.05;;;;;;;14.50;100.00;101576.81;10564459;28;20122;-77
2022/10/05 08:26:39;;;;;;;0.68;0.47;;;;;;;14.55;100.00;101579.50;10567937;28;20048;-76
2022/10/05 08:31:45;;;;;;;0.30;0.30;;;;;;;14.70;100.00;101563.41;10578625;28;20136;-76
2022/10/05 08:36:54;;;;;;;0.70;0.50;;;;;;;14.72;100.00;101566.91;10569302;28;20413;-77
2022/10/05 08:42:23;;;;;;;0.95;0.40;;;;;;;14.69;100.00;101572.03;10539700;28;20605;-77
2022/10/05 08:47:46;;;;;;;1.88;0.82;;;;;;;14.88;100.00;101568.94;10602958;28;20047;-77
2022/10/05 08:53:00;;;;;;;0.45;0.38;;;;;;;14.89;100.00;101568.09;10568251;28;20135;-76
2022/10/05 08:58:20;;;;;;;0.17;0.13;;;;;;;15.01;100.00;101559.66;10563861;28;20077;-76
2022/10/05 09:03:34;;;;;;;4.65;0.70;;;;;;;15.19;100.00;101553.94;10578299;28;20038;-76
2022/10/05 09:08:57;;;;;;;0.52;0.52;;;;;;;15.34;100.00;101552.44;10562735;28;20512;-77
2022/10/05 09:28:16;;;;;;;1.27;0.40;;;;;;;15.62;100.00;101527.78;10584613;28;20036;-78
2022/10/05 09:33:30;;;;;;;0.57;0.40;;;;;;;15.98;100.00;101526.59;10589628;28;20055;-78
2022/10/05 09:39:06;;;;;;;2.72;2.35;;;;;;;15.92;100.00;101523.03;10573365;28;20495;-78
2022/10/05 09:44:46;;;;;;;0.40;0.40;;;;;;;16.01;100.00;101507.56;10573218;28;20071;-78
2022/10/05 09:50:12;;;;;;;0.22;0.22;;;;;;;16.10;100.00;101502.50;10531497;28;20051;-77
2022/10/05 09:55:30;;;;;;;0.70;0.40;;;;;;;16.48;100.00;101496.00;10569767;28;20138;-78
2022/10/05 10:00:41;;;;;;;0.40;0.38;;;;;;;16.75;100.00;101474.59;10588180;28;20495;-78
2022/10/05 10:06:32;;;;;;;0.00;0.00;;;;;;;17.04;100.00;101471.41;10569167;28;20051;-78
2022/10/05 10:11:53;;;;;;;0.20;0.20;;;;;;;17.12;100.00;101461.91;10569343;28;20548;-78
2022/10/05 10:16:59;;;;;;;0.77;0.50;;;;;;;17.07;100.00;101461.03;10569692;28;20544;-78
2022/10/05 10:22:34;;;;;;;1.10;0.50;;;;;;;16.99;100.00;101454.88;10569377;28;20181;-77
2022/10/05 10:28:16;;;;;;;3.42;0.40;;;;;;;17.00;100.00;101441.00;10570487;28;20125;-77
2022/10/05 10:33:24;;;;;;;0.10;0.10;;;;;;;17.67;100.00;101442.31;10586934;28;20138;-76
2022/10/05 10:38:39;;;;;;;0.85;0.70;;;;;;;17.53;100.00;101428.34;10568833;28;20478;-79
2022/10/05 10:44:10;;;;;;;0.45;0.38;;;;;;;17.91;100.00;101415.47;10538749;28;20040;-78
2022/10/05 10:49:33;;;;;;;0.82;0.40;;;;;;;18.49;100.00;101397.38;10525899;28;20063;-78
2022/10/05 10:55:11;;;;;;;0.20;0.20;;;;;;;18.07;100.00;101394.69;10540330;28;20440;-77
2022/10/05 11:00:25;;;;;;;0.05;0.05;;;;;;;18.47;100.00;101399.13;10586046;28;20057;-77
2022/10/05 11:05:45;;;;;;;0.10;0.10;;;;;;;19.06;100.00;101378.25;10567429;28;20086;-77
2022/10/05 11:11:31;;;;;;;0.35;0.20;;;;;;;17.94;100.00;101388.53;10585613;28;20067;-76
2022/10/05 11:16:32;;;;;;;0.60;0.60;;;;;;;17.84;100.00;101381.53;10357138;28;20072;-77
2022/10/05 11:21:56;;;;;;;0.30;0.30;;;;;;;18.80;100.00;101373.91;10488223;28;20097;-76
2022/10/05 11:27:19;;;;;;;0.43;0.35;;;;;;;19.01;100.00;101376.53;10508496;28;20109;-77
2022/10/05 11:33:01;;;;;;;2.55;1.00;;;;;;;17.83;100.00;101370.25;10542853;28;20123;-76
2022/10/05 11:44:38;;;;;;;0.10;0.10;;;;;;;17.73;100.00;101343.31;10584387;28;20578;-76
2022/10/05 11:50:04;;;;;;;0.82;0.30;;;;;;;17.88;100.00;101336.41;10548616;28;20394;-76
2022/10/05 11:55:56;;;;;;;0.95;0.45;;;;;;;17.89;100.00;101332.94;10574773;28;20048;-77
2022/10/05 12:01:15;;;;;;;0.00;0.00;;;;;;;17.97;100.00;101328.66;10550958;28;20054;-75
2022/10/05 12:06:34;;;;;;;2.28;0.20;;;;;;;18.07;100.00;101321.69;10548002;28;20046;-75
2022/10/05 12:11:53;;;;;;;;;;;;;;;18.05;100.00;101319.09;10583493;28;20130;-76
2022/10/05 12:17:17;;;;;;;0.35;0.35;;;;;;;18.22;100.00;101315.63;10581475;28;19965;-76
2022/10/05 12:22:33;;;;;;;0.17;0.15;;;;;;;18.36;100.00;101307.81;10572176;28;20567;-76
2022/10/05 12:27:39;;;;;;;0.03;0.00;;;;;;;18.71;100.00;101288.63;10534711;28;20083;-76
2022/10/05 12:32:58;;;;;;;0.28;0.20;;;;;;;18.71;100.00;101286.91;10573573;28;20475;-76
2022/10/05 12:38:33;;;;;;;0.32;0.30;;;;;;;19.13;100.00;101275.50;10541672;28;20040;-76
2022/10/05 12:43:53;;;;;;;0.10;0.10;;;;;;;19.20;100.00;101273.75;10563205;28;20142;-76
2022/10/05 12:49:20;;;;;;;0.00;0.00;;;;;;;18.88;100.00;101270.31;10581805;28;20035;-75
2022/10/05 12:54:32;;;;;;;0.63;0.38;;;;;;;19.16;100.00;101262.44;10581536;28;20067;-76
2022/10/05 12:59:43;;;;;;;0.32;0.20;;;;;;;19.40;100.00;101261.47;10581441;28;20065;-76
2022/10/05 13:04:49;;;;;;;0.32;0.30;;;;;;;19.34;100.00;101262.34;10567620;28;20561;-75
2022/10/05 13:10:32;;;;;;;0.15;0.10;;;;;;;20.19;100.00;101244.38;10572286;28;20047;-76
2022/10/05 13:15:56;;;;;;;0.10;0.10;;;;;;;20.22;100.00;101250.47;10603088;27;20134;-76
2022/10/05 13:21:05;;;;;;;0.77;0.20;;;;;;;20.16;100.00;101252.28;10585500;28;20040;-76
2022/10/05 13:27:11;;;;;;;0.25;0.20;;;;;;;19.89;100.00;101244.63;10593495;28;20074;-76
2022/10/05 13:32:37;;;;;;;0.32;0.30;;;;;;;19.70;100.00;101246.47;10555323;28;20472;-76
2022/10/05 13:38:07;;;;;;;0.30;0.30;;;;;;;19.70;100.00;101243.88;10565563;28;20457;-76
2022/10/05 13:43:39;;;;;;;1.65;1.17;;;;;;;19.56;100.00;101230.88;10570320;28;20058;-76
2022/10/05 13:49:25;;;;;;;0.08;0.08;;;;;;;19.51;100.00;101230.03;10577875;28;20126;-76
2022/10/05 13:54:46;;;;;;;0.10;0.10;;;;;;;19.86;100.00;101223.72;10581213;28;20101;-77
2022/10/05 13:59:56;;;;;;;1.25;0.40;;;;;;;19.96;100.00;101222.78;10588048;28;20036;-75
2022/10/05 14:05:00;;;;;;;0.30;0.10;;;;;;;19.92;100.00;101215.84;10569708;28;20043;-76
2022/10/05 14:10:10;;;;;;;0.30;0.30;;;;;;;20.51;100.00;101207.47;10569673;28;20414;-76
2022/10/05 14:15:21;;;;;;;0.25;0.10;;;;;;;20.17;100.00;101213.03;10586559;28;20078;-75
2022/10/05 14:20:30;;;;;;;0.50;0.20;;;;;;;20.65;100.00;101209.06;10568952;28;20047;-75
2022/10/05 14:25:46;;;;;;;0.93;0.70;;;;;;;20.54;100.00;101202.19;10587342;28;20047;-76
2022/10/05 14:31:13;;;;;;;0.47;0.38;;;;;;;19.78;100.00;101207.19;10586198;28;20035;-77
2022/10/05 14:36:34;;;;;;;0.63;0.22;;;;;;;19.83;100.00;101205.44;10568215;28;20048;-76
2022/10/05 14:41:40;;;;;;;0.63;0.32;;;;;;;19.81;100.00;101196.72;10586004;28;20372;-76
2022/10/05 14:47:10;;;;;;;0.20;0.00;;;;;;;19.64;100.00;101205.56;10580144;28;20130;-76
2022/10/05 14:52:31;;;;;;;;;;;;;;;19.73;100.00;101199.38;10585904;28;20051;-76
2022/10/05 14:57:57;;;;;;;0.00;0.00;;;;;;;19.65;100.00;101207.31;10585552;28;19923;-76
2022/10/05 15:03:07;;;;;;;0.43;0.20;;;;;;;19.48;100.00;101211.75;10585110;28;20554;-76
2022/10/05 15:08:40;;;;;;;0.47;0.30;;;;;;;19.64;100.00;101215.16;10585025;28;20058;-76
2022/10/05 15:13:44;;;;;;;0.73;0.50;;;;;;;19.49;100.00;101221.34;10566017;28;20039;-76
2022/10/05 15:18:56;;;;;;;0.10;0.10;;;;;;;19.57;100.00;101218.69;10569782;28;20036;-76
2022/10/05 15:24:04;;;;;;;0.03;0.03;;;;;;;19.41;100.00;101218.78;10584410;28;20082;-75
2022/10/05 15:29:41;;;;;;;0.10;0.10;;;;;;;19.64;100.00;101236.94;10581822;28;20042;-76
2022/10/05 15:35:20;;;;;;;0.30;0.30;;;;;;;19.51;100.00;101248.34;10583568;28;20130;-76
2022/10/05 15:41:03;;;;;;;0.22;0.10;;;;;;;19.46;100.00;101242.28;10565715;28;20050;-76
2022/10/05 15:46:37;;;;;;;0.88;0.15;;;;;;;19.36;100.00;101266.72;10483753;28;20074;-77
2022/10/05 15:51:51;;;;;;;0.10;0.10;;;;;;;19.54;100.00;101263.13;10582795;28;20083;-75
2022/10/05 15:56:58;;;;;;;0.00;0.00;;;;;;;19.63;100.00;101261.31;10565365;28;20048;-75
2022/10/05 16:02:05;;;;;;;0.43;0.40;;;;;;;19.45;100.00;101277.13;10582918;28;20131;-75
2022/10/05 16:13:13;;;;;;;0.00;0.00;;;;;;;18.89;100.00;101303.38;10552911;28;20139;-76
2022/10/05 16:18:29;;;;;;;0.10;0.10;;;;;;;18.57;100.00;101322.59;10574040;28;20126;-78
2022/10/05 16:23:30;;;;;;;0.00;0.00;;;;;;;18.36;100.00;101349.53;10578991;28;20040;-76
2022/10/05 16:35:28;;;;;;;0.82;0.60;;;;;;;17.24;100.00;101358.69;10549263;28;20036;-76
2022/10/05 16:40:59;;;;;;;0.03;0.03;;;;;;;17.05;100.00;101365.56;10567469;28;20517;-77
2022/10/05 16:46:23;;;;;;;0.05;0.00;;;;;;;16.85;100.00;101376.66;10578789;28;20039;-76
2022/10/05 16:51:54;;;;;;;0.40;0.15;;;;;;;16.80;100.00;101393.97;10581555;28;20043;-77
2022/10/05 16:57:16;;;;;;;0.00;0.00;;;;;;;16.65;100.00;101410.31;10566911;28;20047;-77
2022/10/05 17:02:27;;;;;;;0.10;0.10;;;;;;;16.63;100.00;101419.84;10558497;28;20096;-78
2022/10/05 17:07:51;;;;;;;0.00;0.00;;;;;;;16.61;100.00;101418.97;10581324;28;20047;-77
2022/10/05 17:13:18;;;;;;;0.15;0.10;;;;;;;16.63;100.00;101425.06;10579176;28;20085;-77
2022/10/05 17:18:43;;;;;;;0.80;0.35;;;;;;;16.60;100.00;101418.09;10581212;28;20521;-77
2022/10/05 17:23:57;;;;;;;0.00;0.00;;;;;;;16.59;100.00;101431.06;10552029;28;20127;-76
2022/10/05 17:29:26;;;;;;;0.00;0.00;;;;;;;16.57;100.00;101428.47;10550715;28;20062;-76
2022/10/05 17:35:00;;;;;;;0.00;0.00;;;;;;;16.67;100.00;101426.81;10580926;28;20039;-75
2022/10/05 17:40:34;;;;;;;0.88;0.22;;;;;;;16.50;100.00;101437.91;10559719;28;20067;-76
2022/10/05 17:45:35;;;;;;;0.00;0.00;;;;;;;16.62;100.00;101441.50;10580568;28;20092;-76
2022/10/05 17:56:06;;;;;;;0.10;0.10;;;;;;;16.57;100.00;101453.63;10588497;28;20122;-77
2022/10/05 18:01:16;;;;;;;0.43;0.25;;;;;;;16.58;100.00;101455.34;10562149;28;20405;-76
2022/10/05 18:06:28;;;;;;;0.35;0.15;;;;;;;16.56;100.00;101467.47;10588072;28;20122;-76
2022/10/05 18:11:32;;;;;;;0.35;0.25;;;;;;;16.64;100.00;101465.81;10587544;28;20394;-76
2022/10/05 18:17:01;;;;;;;0.32;0.32;;;;;;;16.64;100.00;101450.22;10568794;28;20134;-77
2022/10/05 18:22:29;;;;;;;0.15;0.15;;;;;;;16.63;100.00;101451.06;10575067;28;20178;-77
2022/10/05 18:27:46;;;;;;;4.00;0.32;;;;;;;16.68;100.00;101454.56;10571966;28;20147;-76
2022/10/05 18:32:51;;;;;;;0.25;0.15;;;;;;;16.61;100.00;101453.63;10566062;28;20494;-76
2022/10/05 18:38:22;;;;;;;0.22;0.22;;;;;;;16.62;100.00;101457.97;10570367;28;20158;-77
2022/10/05 18:43:32;;;;;;;0.15;0.10;;;;;;;16.68;100.00;101451.97;10595170;28;20127;-77
2022/10/05 18:48:47;;;;;;;0.88;0.28;;;;;;;16.69;100.00;101469.34;10566528;28;20039;-76
2022/10/05 18:54:23;;;;;;;0.80;0.68;;;;;;;16.87;100.00;101452.13;10558736;28;20039;-76
2022/10/05 18:59:42;;;;;;;0.25;0.20;;;;;;;16.78;100.00;101459.03;10595513;28;20109;-76
2022/10/05 19:04:56;;;;;;;0.07;0.07;;;;;;;16.90;100.00;101457.38;10558850;28;20050;-77
2022/10/05 19:10:14;;;;;;;0.10;0.10;;;;;;;16.81;100.00;101459.03;10551464;28;20058;-77
2022/10/05 19:15:28;;;;;;;0.00;0.00;;;;;;;16.87;100.00;101457.31;10569538;28;20070;-77
2022/10/05 19:20:40;;;;;;;0.70;0.30;;;;;;;17.11;100.00;101462.78;10590064;28;20078;-77
2022/10/05 19:25:51;;;;;;;0.10;0.00;;;;;;;17.02;100.00;101473.09;10545453;28;20513;-76
2022/10/05 19:30:59;;;;;;;0.13;0.00;;;;;;;17.10;100.00;101484.47;10574808;28;20093;-77
2022/10/05 19:36:17;;;;;;;0.05;0.03;;;;;;;17.12;100.00;101480.16;10557024;28;20181;-77
2022/10/05 19:41:34;;;;;;;0.00;0.00;;;;;;;16.89;100.00;101482.53;10575071;28;20513;-76
2022/10/05 19:46:52;;;;;;;0.10;0.10;;;;;;;17.01;100.00;101492.22;10575031;28;20073;-77
2022/10/05 19:51:56;;;;;;;0.45;0.22;;;;;;;17.00;100.00;101482.66;10567018;28;20406;-77
2022/10/05 19:58:04;;;;;;;0.28;0.15;;;;;;;16.96;100.00;101493.88;10581965;28;20046;-76
2022/10/05 20:03:10;;;;;;;0.08;0.08;;;;;;;17.15;100.00;101499.25;10555318;28;20055;-77
2022/10/05 20:08:18;;;;;;;0.10;0.05;;;;;;;17.24;100.00;101499.31;10585041;28;20044;-77
2022/10/05 20:13:23;;;;;;;0.15;0.15;;;;;;;17.19;100.00;101508.84;10542258;28;20040;-77
2022/10/05 20:24:26;;;;;;;0.20;0.20;;;;;;;17.10;100.00;101530.47;10574598;28;20104;-77
2022/10/05 20:29:39;;;;;;;0.52;0.20;;;;;;;17.13;100.00;101548.69;10592369;28;20047;-77
2022/10/05 20:34:42;;;;;;;0.10;0.10;;;;;;;17.09;100.00;101553.00;10588194;28;20506;-77
2022/10/05 20:39:44;;;;;;;5.63;0.57;;;;;;;17.15;100.00;101564.34;10569784;28;20040;-76
2022/10/05 20:44:45;;;;;;;0.10;0.10;;;;;;;17.21;100.00;101578.28;10577046;28;20134;-77
2022/10/05 20:49:47;;;;;;;0.10;0.10;;;;;;;17.20;100.00;101601.72;10588650;28;20049;-77
2022/10/05 20:54:55;;;;;;;0.08;0.05;;;;;;;17.07;100.00;101609.41;10578819;28;20078;-77
2022/10/05 20:59:57;;;;;;;0.03;0.00;;;;;;;16.91;100.00;101621.34;10569697;28;20067;-77
2022/10/05 21:04:59;;;;;;;0.00;0.00;;;;;;;16.90;100.00;101634.34;10571337;28;20067;-78
2022/10/05 21:10:02;;;;;;;0.10;0.10;;;;;;;16.92;100.00;101659.56;10586871;28;20079;-77
2022/10/05 21:15:04;;;;;;;0.20;0.20;;;;;;;16.90;100.00;101695.06;10569168;28;20043;-78
2022/10/05 21:20:10;;;;;;;0.52;0.15;;;;;;;14.97;100.00;101770.63;10569157;28;20058;-77
2022/10/05 21:25:11;;;;;;;0.00;0.00;;;;;;;14.08;100.00;101784.94;10548443;28;20082;-77
2022/10/05 21:30:16;;;;;;;0.00;0.00;;;;;;;13.63;100.00;101826.06;10534016;28;20497;-79
2022/10/05 21:35:17;;;;;;;0.00;0.00;;;;;;;13.39;100.00;101864.19;10571659;28;20048;-76
2022/10/05 21:40:19;;;;;;;0.35;0.05;;;;;;;13.29;100.00;101894.94;10550706;28;20044;-76
2022/10/05 21:45:20;;;;;;;0.00;0.00;;;;;;;13.12;100.00;101911.66;10557455;28;20532;-77
2022/10/05 21:50:24;;;;;;;0.00;0.00;;;;;;;12.92;100.00;102033.44;10587636;28;20071;-76
2022/10/05 21:55:26;;;;;;;0.00;0.00;;;;;;;12.84;100.00;102050.44;10569470;28;20509;-76
2022/10/05 22:00:27;;;;;;;0.00;0.00;;;;;;;12.83;100.00;102085.75;10588096;28;20122;-76
2022/10/05 22:05:29;;;;;;;0.00;0.00;;;;;;;12.94;100.00;102100.78;10570184;28;20050;-76
2022/10/05 22:10:31;;;;;;;0.10;0.10;;;;;;;12.87;100.00;102122.06;10569985;28;20127;-77
2022/10/05 22:15:33;;;;;;;2.05;1.02;;;;;;;12.93;100.00;102151.59;10587775;28;20064;-76
2022/10/05 22:20:34;;;;;;;0.00;0.00;;;;;;;12.83;100.00;102157.28;10587724;28;20063;-76
2022/10/05 22:25:37;;;;;;;1.17;0.75;;;;;;;12.89;100.00;102182.47;10587501;28;20180;-75
2022/10/05 22:30:41;;;;;;;0.00;0.00;;;;;;;12.84;100.00;102195.25;10587138;28;20049;-75
2022/10/05 22:35:42;;;;;;;0.15;0.15;;;;;;;12.83;100.00;102202.13;10584369;28;20071;-76
2022/10/05 22:40:44;;;;;;;0.00;0.00;;;;;;;12.79;100.00;102217.47;10574671;28;20094;-76
2022/10/05 22:45:45;;;;;;;0.55;0.03;;;;;;;12.75;100.00;102221.63;10585351;28;20475;-76
2022/10/05 22:50:48;;;;;;;0.10;0.10;;;;;;;12.63;100.00;102227.22;10585203;28;20075;-76
2022/10/05 22:55:49;;;;;;;0.00;0.00;;;;;;;12.73;100.00;102258.59;10586659;28;20126;-76
2022/10/05 23:00:51;;;;;;;0.20;0.00;;;;;;;12.78;100.00;102272.59;10585974;28;20078;-76
2022/10/05 23:06:02;;;;;;;0.00;0.00;;;;;;;12.75;100.00;102280.25;10567681;28;20044;-76
2022/10/05 23:11:10;;;;;;;0.05;0.03;;;;;;;12.73;100.00;102292.22;10567388;28;20043;-76
2022/10/05 23:16:14;;;;;;;1.25;0.20;;;;;;;12.48;100.00;102310.22;10585418;28;20079;-76
2022/10/05 23:21:17;;;;;;;0.00;0.00;;;;;;;12.44;100.00;102317.78;10585134;28;20063;-76
2022/10/05 23:26:21;;;;;;;0.00;0.00;;;;;;;12.38;100.00;102328.75;10584993;28;20123;-76
2022/10/05 23:31:25;;;;;;;0.35;0.35;;;;;;;12.46;100.00;102336.84;10584420;28;20043;-77
2022/10/05 23:36:31;;;;;;;0.50;0.50;;;;;;;12.40;100.00;102342.63;10584342;28;20082;-77
2022/10/05 23:41:33;;;;;;;0.00;0.00;;;;;;;12.32;100.00;102354.34;10583970;28;20044;-76
2022/10/05 23:46:34;;;;;;;0.00;0.00;;;;;;;12.40;100.00;102354.69;10583781;28;20050;-75
2022/10/05 23:52:06;;;;;;;2.17;0.10;;;;;;;12.34;100.00;102358.75;10583081;28;20050;-77
2022/10/05 23:57:07;;;;;;;0.08;0.05;;;;;;;12.32;100.00;102354.34;10583762;28;20047;-76
